sensor_id;sensor_type;location;lat;lon;timestamp;temperature;humidity
3256;DHT22;1640;48.504;9.224;2022-09-03T00:01:58;19.10;71.30
3256;DHT22;1640;48.504;9.224;2022-09-03T00:04:33;19.00;71.60
3256;DHT22;1640;48.504;9.224;2022-09-03T00:07:10;19.10;71.50
3256;DHT22;1640;48.504;9.224;2022-09-03T00:09:42;18.90;71.90
3256;DHT22;1640;48.504;9.224;2022-09-03T00:12:14;18.90;72.20
3256;DHT22;1640;48.504;9.224;2022-09-03T00:14:47;19.00;72.60
3256;DHT22;1640;48.504;9.224;2022-09-03T00:17:19;18.90;72.60
3256;DHT22;1640;48.504;9.224;2022-09-03T00:19:53;18.90;72.80
3256;DHT22;1640;48.504;9.224;2022-09-03T00:22:26;19.00;72.50
3256;DHT22;1640;48.504;9.224;2022-09-03T00:24:56;18.90;72.50
3256;DHT22;1640;48.504;9.224;2022-09-03T00:27:27;18.90;72.60
3256;DHT22;1640;48.504;9.224;2022-09-03T00:30:00;18.90;72.60
3256;DHT22;1640;48.504;9.224;2022-09-03T00:32:39;18.90;72.80
3256;DHT22;1640;48.504;9.224;2022-09-03T00:35:11;18.90;73.10
3256;DHT22;1640;48.504;9.224;2022-09-03T00:37:43;18.90;73.20
3256;DHT22;1640;48.504;9.224;2022-09-03T00:40:19;18.90;73.50
3256;DHT22;1640;48.504;9.224;2022-09-03T00:42:56;18.90;73.20
3256;DHT22;1640;48.504;9.224;2022-09-03T00:45:31;18.90;73.40
3256;DHT22;1640;48.504;9.224;2022-09-03T00:48:07;18.80;73.50
3256;DHT22;1640;48.504;9.224;2022-09-03T00:50:44;18.80;73.40
3256;DHT22;1640;48.504;9.224;2022-09-03T00:53:23;18.80;73.50
3256;DHT22;1640;48.504;9.224;2022-09-03T00:55:59;18.80;73.80
3256;DHT22;1640;48.504;9.224;2022-09-03T00:58:48;18.80;73.80
3256;DHT22;1640;48.504;9.224;2022-09-03T01:01:33;18.80;73.90
3256;DHT22;1640;48.504;9.224;2022-09-03T01:04:11;18.70;74.10
3256;DHT22;1640;48.504;9.224;2022-09-03T01:06:52;18.70;74.10
3256;DHT22;1640;48.504;9.224;2022-09-03T01:09:38;18.70;74.10
3256;DHT22;1640;48.504;9.224;2022-09-03T01:12:14;18.70;74.10
3256;DHT22;1640;48.504;9.224;2022-09-03T01:14:53;18.70;74.20
3256;DHT22;1640;48.504;9.224;2022-09-03T01:17:33;18.60;74.20
3256;DHT22;1640;48.504;9.224;2022-09-03T01:20:26;18.60;74.20
3256;DHT22;1640;48.504;9.224;2022-09-03T01:23:21;18.60;74.10
3256;DHT22;1640;48.504;9.224;2022-09-03T01:25:53;18.60;74.10
3256;DHT22;1640;48.504;9.224;2022-09-03T01:28:38;18.50;74.20
3256;DHT22;1640;48.504;9.224;2022-09-03T01:31:16;18.50;74.10
3256;DHT22;1640;48.504;9.224;2022-09-03T01:33:51;18.50;73.90
3256;DHT22;1640;48.504;9.224;2022-09-03T01:36:28;18.40;73.90
3256;DHT22;1640;48.504;9.224;2022-09-03T01:39:00;18.30;73.50
3256;DHT22;1640;48.504;9.224;2022-09-03T01:41:40;18.40;73.60
3256;DHT22;1640;48.504;9.224;2022-09-03T01:44:40;18.40;73.50
3256;DHT22;1640;48.504;9.224;2022-09-03T01:47:21;18.40;73.60
